Time;durP1;ratioP1;P1;durP2;ratioP2;P2;SDS_P1;SDS_P2;PMS_P1;PMS_P2;Temp;Humidity;BMP_temperature;BMP_pressure;BME280_temperature;BME280_humidity;BME280_pressure;Samples;Min_cycle;Max_cycle;Signal;HPM_P1;HPM_P2
2023/01/22 00:01:13;;;;;;;27.00;16.60;;;;;;;0.17;79.88;97588.80;108846;1251;102748;-79
2023/01/22 00:03:42;;;;;;;32.10;17.30;;;;;;;0.15;80.00;97589.89;108890;1251;100328;-81
2023/01/22 00:06:12;;;;;;;28.40;16.80;;;;;;;0.14;80.00;97592.85;108815;1251;99672;-81
2023/01/22 00:08:40;;;;;;;25.00;16.40;;;;;;;0.13;79.99;97590.98;108831;1250;95865;-79
2023/01/22 00:11:08;;;;;;;30.30;18.50;;;;;;;0.14;80.05;97594.05;108863;1251;96370;-80
2023/01/22 00:13:36;;;;;;;36.30;19.50;;;;;;;0.15;80.02;97596.44;108843;1251;103641;-79
2023/01/22 00:16:04;;;;;;;34.40;18.20;;;;;;;0.15;79.93;97597.84;108850;1251;101338;-79
2023/01/22 00:18:33;;;;;;;43.60;22.90;;;;;;;0.15;79.94;97600.34;108595;1251;99916;-79
2023/01/22 00:21:01;;;;;;;40.80;20.70;;;;;;;0.14;80.00;97595.98;108819;1251;97346;-79
2023/01/22 00:23:29;;;;;;;30.90;16.90;;;;;;;0.14;80.10;97590.64;108868;1251;96000;-79
2023/01/22 00:26:09;;;;;;;24.40;14.30;;;;;;;0.13;79.93;97594.00;108425;1251;102612;-85
2023/01/22 00:28:40;;;;;;;21.60;14.30;;;;;;;0.12;79.82;97599.54;108843;1251;101349;-81
2023/01/22 00:31:11;;;;;;;22.90;13.30;;;;;;;0.13;79.81;97601.94;108832;1255;99920;-82
2023/01/22 00:33:40;;;;;;;19.60;12.90;;;;;;;0.14;79.86;97605.71;108822;1251;95901;-79
2023/01/22 00:36:11;;;;;;;20.90;13.40;;;;;;;0.15;79.90;97605.83;108861;1251;96014;-82
2023/01/22 00:38:39;;;;;;;22.30;12.70;;;;;;;0.15;79.93;97606.38;108848;1251;103005;-78
2023/01/22 00:41:09;;;;;;;23.30;13.10;;;;;;;0.14;79.67;97608.58;108700;1251;100794;-80
2023/01/22 00:43:39;;;;;;;22.90;13.30;;;;;;;0.13;79.61;97606.94;108833;1251;99415;-82
2023/01/22 00:46:09;;;;;;;21.60;12.90;;;;;;;0.11;79.65;97607.80;108660;1251;218082;-78
2023/01/22 00:48:38;;;;;;;21.00;12.20;;;;;;;0.12;79.64;97615.89;108868;1251;95657;-78
2023/01/22 00:51:08;;;;;;;17.90;11.30;;;;;;;0.13;79.68;97618.20;108907;1251;103689;-78
2023/01/22 00:53:36;;;;;;;18.90;11.90;;;;;;;0.13;79.60;97619.62;108794;1253;101610;-79
2023/01/22 00:56:05;;;;;;;22.50;13.00;;;;;;;0.12;79.46;97624.33;108836;1251;99840;-78
2023/01/22 00:58:34;;;;;;;21.90;13.00;;;;;;;0.11;79.55;97629.23;108794;1251;95580;-78
2023/01/22 01:01:02;;;;;;;19.00;12.00;;;;;;;0.11;79.43;97632.45;108827;1251;95973;-82
2023/01/22 01:03:30;;;;;;;23.20;13.80;;;;;;;0.09;79.45;97634.34;108851;1251;103474;-78
2023/01/22 01:06:20;;;;;;;23.80;14.40;;;;;;;0.10;79.55;97630.58;108820;1251;100317;-78
2023/01/22 01:08:50;;;;;;;19.70;12.70;;;;;;;0.09;79.41;97633.34;108861;1251;100136;-78
2023/01/22 01:11:24;;;;;;;21.40;13.40;;;;;;;0.05;79.31;97639.67;108783;1251;95622;-78
2023/01/22 01:13:52;;;;;;;21.10;12.90;;;;;;;0.03;79.43;97652.63;108878;1251;95993;-83
2023/01/22 01:16:26;;;;;;;27.70;14.00;;;;;;;0.01;79.42;97659.47;108866;1251;103669;-78
2023/01/22 01:18:58;;;;;;;21.70;11.90;;;;;;;0.03;79.53;97664.26;108864;1251;101351;-79
2023/01/22 01:21:27;;;;;;;;;;;;;;;0.05;79.50;97664.65;108854;1251;99911;-79
2023/01/22 01:23:56;;;;;;;14.80;10.10;;;;;;;0.01;79.28;97669.23;108635;1251;95934;-78
2023/01/22 01:26:25;;;;;;;16.40;10.30;;;;;;;-0.00;79.21;97663.89;108853;1251;96059;-81
2023/01/22 01:28:53;;;;;;;16.10;9.70;;;;;;;-0.01;79.12;97659.00;108901;1251;103281;-79
2023/01/22 01:31:24;;;;;;;25.00;13.00;;;;;;;-0.04;79.10;97654.96;108862;1251;101224;-78
2023/01/22 01:33:53;;;;;;;20.50;12.00;;;;;;;-0.06;79.02;97656.05;108813;1254;99885;-83
2023/01/22 01:36:24;;;;;;;20.60;10.90;;;;;;;-0.04;79.13;97659.09;108555;1252;95898;-82
2023/01/22 01:38:54;;;;;;;16.80;9.60;;;;;;;-0.04;79.11;97652.86;108853;1251;95967;-79
2023/01/22 01:41:26;;;;;;;15.50;8.10;;;;;;;-0.06;79.02;97653.47;108841;1251;103080;-78
2023/01/22 01:44:12;;;;;;;15.50;8.80;;;;;;;-0.07;78.97;97653.69;108851;1251;101335;-78
2023/01/22 01:46:46;;;;;;;15.20;9.00;;;;;;;-0.07;78.83;97648.52;108848;1251;99474;-78
2023/01/22 01:49:42;;;;;;;13.50;7.80;;;;;;;-0.08;78.75;97652.02;108822;1251;95533;-81
2023/01/22 01:52:13;;;;;;;12.50;8.00;;;;;;;-0.09;78.84;97650.73;108259;1259;96133;-81
2023/01/22 01:54:45;;;;;;;9.50;5.60;;;;;;;-0.10;78.85;97647.92;108129;1263;112135;-80
2023/01/22 01:57:18;;;;;;;19.90;11.40;;;;;;;-0.11;78.85;97650.13;108293;1258;101300;-81
2023/01/22 01:59:48;;;;;;;13.30;8.30;;;;;;;-0.11;78.91;97655.45;108259;1260;99910;-78
2023/01/22 02:02:18;;;;;;;11.10;8.20;;;;;;;-0.10;78.94;97652.17;108227;1259;95707;-78
2023/01/22 02:04:48;;;;;;;12.70;8.90;;;;;;;-0.09;78.93;97646.45;108271;1261;96567;-78
2023/01/22 02:07:16;;;;;;;14.00;9.70;;;;;;;-0.07;78.95;97645.67;108185;1260;103624;-79
2023/01/22 02:09:44;;;;;;;18.70;10.60;;;;;;;-0.06;79.00;97649.90;108291;1260;101235;-80
2023/01/22 02:12:12;;;;;;;26.80;13.80;;;;;;;-0.07;78.97;97650.01;108237;1259;100116;-79
2023/01/22 02:14:44;;;;;;;16.60;10.10;;;;;;;-0.07;78.97;97650.12;108240;1259;95581;-79
2023/01/22 02:17:20;;;;;;;16.60;10.90;;;;;;;-0.05;78.89;97651.18;108270;1258;95735;-79
2023/01/22 02:19:48;;;;;;;14.80;8.80;;;;;;;-0.04;78.91;97650.77;108256;1259;112552;-83
2023/01/22 02:22:21;;;;;;;15.10;9.70;;;;;;;-0.06;78.88;97649.36;108251;1259;101442;-80
2023/01/22 02:24:50;;;;;;;15.80;9.50;;;;;;;-0.05;78.96;97650.90;108214;1260;98638;-79
2023/01/22 02:27:18;;;;;;;15.00;9.30;;;;;;;-0.04;78.93;97654.48;108291;1259;95626;-81
2023/01/22 02:29:46;;;;;;;13.50;8.70;;;;;;;-0.04;78.90;97652.87;108472;1254;96054;-84
2023/01/22 02:32:14;;;;;;;12.70;9.30;;;;;;;-0.01;79.01;97652.48;108760;1251;103489;-79
2023/01/22 02:34:43;;;;;;;14.20;8.90;;;;;;;-0.01;78.97;97649.99;108641;1251;100482;-82
2023/01/22 02:37:11;;;;;;;17.40;10.70;;;;;;;-0.02;78.86;97644.60;108847;1251;98972;-79
2023/01/22 02:39:39;;;;;;;14.50;9.70;;;;;;;-0.02;79.02;97646.19;108748;1251;95558;-79
2023/01/22 02:42:08;;;;;;;18.60;11.80;;;;;;;-0.04;78.99;97642.58;108817;1251;95908;-82
2023/01/22 02:44:37;;;;;;;16.90;10.90;;;;;;;-0.07;79.01;97642.88;108830;1251;102100;-79
2023/01/22 02:47:05;;;;;;;16.50;11.40;;;;;;;-0.08;79.03;97647.02;108870;1251;100308;-82
2023/01/22 02:49:33;;;;;;;18.60;12.10;;;;;;;-0.10;78.99;97650.27;108776;1251;100288;-78
2023/01/22 02:52:01;;;;;;;18.70;11.60;;;;;;;-0.10;79.11;97650.27;108826;1251;95572;-79
2023/01/22 02:54:29;;;;;;;19.00;11.80;;;;;;;-0.10;79.27;97657.51;108811;1251;96122;-83
2023/01/22 02:56:57;;;;;;;17.80;11.60;;;;;;;-0.10;79.24;97661.00;108886;1251;102562;-78
2023/01/22 02:59:25;;;;;;;21.20;12.30;;;;;;;-0.08;79.26;97662.99;108526;1253;99636;-78
2023/01/22 03:01:55;;;;;;;20.20;13.80;;;;;;;-0.07;79.29;97657.55;108791;1251;100155;-79
2023/01/22 03:04:23;;;;;;;24.10;14.60;;;;;;;-0.05;79.28;97659.20;108539;1251;96049;-80
2023/01/22 03:06:51;;;;;;;27.30;15.30;;;;;;;-0.05;79.31;97662.86;108832;1251;96815;-79
2023/01/22 03:09:19;;;;;;;24.20;14.90;;;;;;;-0.04;79.34;97663.48;108639;1251;103786;-78
2023/01/22 03:11:48;;;;;;;21.10;14.40;;;;;;;-0.03;79.32;97661.95;108845;1251;101402;-79
2023/01/22 03:22:33;;;;;;;24.80;15.20;;;;;;;0.02;79.34;97663.88;108864;1251;102652;-79
2023/01/22 03:25:01;;;;;;;23.40;14.60;;;;;;;0.01;79.31;97662.16;108892;1251;100057;-78
2023/01/22 03:27:31;;;;;;;26.80;16.10;;;;;;;0.02;79.46;97663.46;108838;1251;100150;-78
2023/01/22 03:29:59;;;;;;;25.60;14.80;;;;;;;0.04;79.35;97662.80;108832;1251;95587;-79
2023/01/22 03:32:27;;;;;;;27.60;16.00;;;;;;;0.03;79.31;97657.35;108870;1251;97289;-79
2023/01/22 03:34:55;;;;;;;26.90;15.70;;;;;;;0.04;79.30;97656.21;108585;1251;103694;-78
2023/01/22 03:37:23;;;;;;;30.10;17.20;;;;;;;0.05;79.47;97654.76;108888;1251;101307;-81
2023/01/22 03:39:51;;;;;;;24.40;15.50;;;;;;;0.05;79.48;97656.63;108842;1251;99818;-80
2023/01/22 03:42:19;;;;;;;25.50;15.40;;;;;;;0.03;79.42;97662.88;108804;1251;95602;-81
2023/01/22 03:44:47;;;;;;;27.60;17.30;;;;;;;-0.00;79.38;97665.11;108848;1251;96010;-83
2023/01/22 03:47:17;;;;;;;24.00;16.20;;;;;;;0.00;79.52;97662.42;108845;1251;102648;-77
2023/01/22 03:49:45;;;;;;;27.50;16.90;;;;;;;-0.01;79.46;97665.55;108782;1251;101257;-78
2023/01/22 03:52:13;;;;;;;28.10;17.00;;;;;;;-0.03;79.52;97669.13;108774;1251;100273;-78
2023/01/22 03:54:41;;;;;;;28.00;17.30;;;;;;;-0.05;79.54;97666.24;108768;1252;96307;-78
2023/01/22 03:57:09;;;;;;;29.80;17.90;;;;;;;-0.05;79.57;97668.02;108876;1251;95991;-80
2023/01/22 03:59:37;;;;;;;30.60;18.80;;;;;;;-0.05;79.71;97668.52;108561;1254;103685;-78
2023/01/22 04:02:05;;;;;;;27.20;18.20;;;;;;;-0.05;79.70;97668.17;108581;1254;101221;-82
2023/01/22 04:04:33;;;;;;;30.10;18.00;;;;;;;-0.03;79.74;97666.77;108540;1254;100593;-83
2023/01/22 04:07:01;;;;;;;29.80;18.50;;;;;;;-0.02;79.72;97674.46;108749;1251;95543;-78
2023/01/22 04:09:29;;;;;;;30.00;18.60;;;;;;;-0.01;79.77;97675.27;108841;1251;96072;-78
2023/01/22 04:11:58;;;;;;;26.30;16.40;;;;;;;-0.03;79.68;97673.15;108818;1251;103640;-78
2023/01/22 04:14:26;;;;;;;28.70;18.50;;;;;;;-0.06;79.88;97674.11;108866;1251;101324;-79
2023/01/22 04:16:54;;;;;;;31.50;19.30;;;;;;;-0.09;79.75;97671.93;108818;1251;100188;-79
2023/01/22 04:19:22;;;;;;;31.10;19.50;;;;;;;-0.11;79.89;97670.50;108805;1251;95571;-81
2023/01/22 04:21:50;;;;;;;34.80;19.90;;;;;;;-0.11;79.93;97677.80;108886;1251;96087;-78
2023/01/22 04:24:18;;;;;;;29.10;18.70;;;;;;;-0.11;79.99;97670.11;108813;1251;102695;-79
2023/01/22 04:26:46;;;;;;;36.00;20.90;;;;;;;-0.11;80.00;97666.25;108855;1251;100044;-80
2023/01/22 04:29:14;;;;;;;31.70;19.20;;;;;;;-0.12;79.96;97664.59;108858;1251;100152;-79
2023/01/22 04:31:42;;;;;;;32.80;19.60;;;;;;;-0.12;79.96;97659.08;108462;1254;95958;-78
2023/01/22 04:34:10;;;;;;;33.00;19.70;;;;;;;-0.12;80.04;97659.09;108598;1254;96317;-78
2023/01/22 04:36:38;;;;;;;32.00;19.50;;;;;;;-0.12;80.01;97656.27;108598;1254;110778;-80
2023/01/22 04:39:06;;;;;;;31.00;18.90;;;;;;;-0.10;80.06;97655.39;108347;1254;100757;-80
2023/01/22 04:41:34;;;;;;;30.10;18.60;;;;;;;-0.10;80.06;97657.64;108590;1254;99782;-80
2023/01/22 04:44:02;;;;;;;30.80;19.20;;;;;;;-0.12;80.01;97659.42;108587;1254;95659;-80
2023/01/22 04:46:30;;;;;;;31.60;19.20;;;;;;;-0.13;79.92;97661.33;108610;1254;96559;-78
2023/01/22 04:48:58;;;;;;;31.70;19.70;;;;;;;-0.14;80.02;97662.30;108316;1257;103312;-78
2023/01/22 04:51:26;;;;;;;32.30;18.20;;;;;;;-0.14;80.06;97660.58;108318;1256;101926;-78
2023/01/22 04:53:55;;;;;;;29.80;19.20;;;;;;;-0.15;80.07;97657.25;108326;1257;100329;-83
2023/01/22 04:56:23;;;;;;;30.40;19.00;;;;;;;-0.14;80.17;97658.38;108365;1254;95577;-82
2023/01/22 04:58:51;;;;;;;35.50;21.00;;;;;;;-0.13;80.14;97654.57;108366;1254;96093;-79
2023/01/22 05:01:19;;;;;;;35.40;20.70;;;;;;;-0.13;80.12;97660.61;108305;1254;103190;-80
2023/01/22 05:03:47;;;;;;;35.00;18.80;;;;;;;-0.13;80.23;97667.75;108758;1251;101361;-79
2023/01/22 05:06:15;;;;;;;32.00;19.20;;;;;;;-0.15;80.21;97678.20;108818;1251;99030;-79
2023/01/22 05:08:43;;;;;;;32.00;20.00;;;;;;;-0.16;80.22;97685.45;108793;1251;95533;-79
2023/01/22 05:11:11;;;;;;;29.70;18.00;;;;;;;-0.15;80.24;97698.67;108856;1251;96035;-79
2023/01/22 05:13:39;;;;;;;36.40;21.10;;;;;;;-0.16;80.19;97699.47;108882;1251;102652;-79
2023/01/22 05:16:08;;;;;;;33.40;20.80;;;;;;;-0.17;80.32;97707.48;108885;1251;101180;-79
2023/01/22 05:18:36;;;;;;;32.40;20.40;;;;;;;-0.17;80.28;97711.56;108624;1252;100939;-79
2023/01/22 05:21:04;;;;;;;34.40;20.50;;;;;;;-0.17;80.30;97720.02;108798;1251;95573;-80
2023/01/22 05:23:32;;;;;;;32.50;20.10;;;;;;;-0.15;80.34;97720.42;108900;1251;96028;-83
2023/01/22 05:26:00;;;;;;;32.50;19.60;;;;;;;-0.13;80.34;97716.19;108850;1251;112243;-79
2023/01/22 05:28:28;;;;;;;32.20;18.90;;;;;;;-0.12;80.39;97714.63;108884;1251;101090;-79
2023/01/22 05:30:56;;;;;;;31.90;19.40;;;;;;;-0.10;80.32;97722.59;108848;1251;99044;-81
2023/01/22 05:33:24;;;;;;;31.90;19.40;;;;;;;-0.07;80.37;97722.19;108844;1251;95831;-78
2023/01/22 05:36:00;;;;;;;32.10;18.80;;;;;;;-0.05;80.39;97717.05;108861;1251;96023;-78
2023/01/22 05:38:30;;;;;;;30.20;19.20;;;;;;;-0.03;80.44;97712.95;108614;1254;103946;-79
2023/01/22 05:40:58;;;;;;;29.30;18.10;;;;;;;-0.01;80.39;97709.45;108808;1251;101481;-78
2023/01/22 05:43:26;;;;;;;30.10;18.40;;;;;;;-0.02;80.48;97720.45;108833;1251;99690;-80
2023/01/22 05:45:54;;;;;;;31.20;19.80;;;;;;;-0.01;80.36;97725.00;108838;1251;95800;-79
2023/01/22 05:48:22;;;;;;;33.10;19.50;;;;;;;-0.02;80.37;97720.81;108894;1251;96026;-79
2023/01/22 05:50:50;;;;;;;35.80;20.70;;;;;;;-0.02;80.42;97719.59;108864;1251;103334;-79
2023/01/22 05:53:18;;;;;;;32.90;20.00;;;;;;;-0.02;80.40;97712.88;108592;1252;101390;-79
2023/01/22 05:55:46;;;;;;;35.30;19.80;;;;;;;-0.01;80.51;97714.39;108847;1251;99727;-79
2023/01/22 05:58:14;;;;;;;30.70;18.20;;;;;;;-0.00;80.39;97710.05;108825;1251;95920;-79
2023/01/22 06:00:42;;;;;;;33.30;20.00;;;;;;;-0.01;80.42;97708.72;108880;1251;95981;-79
2023/01/22 06:03:11;;;;;;;33.50;21.60;;;;;;;0.00;80.56;97709.13;108840;1251;102674;-79
2023/01/22 06:05:39;;;;;;;34.40;20.60;;;;;;;0.02;80.55;97707.69;108594;1251;100064;-79
2023/01/22 06:08:07;;;;;;;32.70;20.30;;;;;;;0.03;80.51;97704.95;108626;1251;99148;-79
2023/01/22 06:10:35;;;;;;;33.40;19.90;;;;;;;0.03;80.49;97700.89;108831;1251;95632;-79
2023/01/22 06:13:03;;;;;;;30.90;17.80;;;;;;;0.03;80.58;97698.45;108918;1251;95982;-79
2023/01/22 06:15:31;;;;;;;27.20;16.90;;;;;;;0.03;80.46;97702.16;108623;1254;103617;-82
2023/01/22 06:18:01;;;;;;;27.60;16.90;;;;;;;0.03;80.43;97702.14;108623;1254;101400;-82
2023/01/22 06:20:29;;;;;;;24.40;15.70;;;;;;;0.04;80.38;97699.38;108810;1251;99626;-79
2023/01/22 06:22:57;;;;;;;24.80;15.90;;;;;;;0.07;80.49;97689.05;108872;1251;95779;-81
2023/01/22 06:25:25;;;;;;;25.70;16.10;;;;;;;0.10;80.52;97693.02;108825;1251;95993;-80
2023/01/22 06:27:53;;;;;;;27.20;16.00;;;;;;;0.09;80.52;97698.05;108864;1251;102572;-79
2023/01/22 06:30:21;;;;;;;27.20;15.60;;;;;;;0.07;80.41;97703.77;108627;1251;100499;-84
2023/01/22 06:32:53;;;;;;;21.50;14.60;;;;;;;0.04;80.38;97712.67;108875;1251;99421;-79
2023/01/22 06:35:21;;;;;;;25.80;15.90;;;;;;;0.04;80.51;97719.96;108833;1251;95546;-80
2023/01/22 06:37:49;;;;;;;27.90;16.60;;;;;;;0.05;80.50;97723.91;108912;1251;97064;-80
2023/01/22 06:40:17;;;;;;;21.80;13.10;;;;;;;0.07;80.48;97729.42;108880;1250;102214;-80
2023/01/22 06:42:46;;;;;;;26.50;16.80;;;;;;;0.06;80.47;97738.33;108557;1251;99320;-81
2023/01/22 06:45:14;;;;;;;28.40;16.20;;;;;;;0.05;80.39;97743.52;108856;1251;98570;-81
2023/01/22 06:47:46;;;;;;;28.60;17.90;;;;;;;0.06;80.36;97751.23;108851;1251;95616;-82
2023/01/22 06:50:14;;;;;;;25.20;15.90;;;;;;;0.07;80.47;97748.71;108896;1251;95562;-83
2023/01/22 06:52:42;;;;;;;28.20;16.70;;;;;;;0.08;80.61;97749.88;108880;1251;103704;-80
2023/01/22 06:55:10;;;;;;;30.30;17.30;;;;;;;0.07;80.70;97756.08;108864;1251;100368;-81
2023/01/22 06:57:38;;;;;;;28.00;16.80;;;;;;;0.08;80.76;97765.38;108808;1251;98727;-80
2023/01/22 07:00:07;;;;;;;28.20;16.70;;;;;;;0.08;80.70;97764.30;108785;1251;95524;-83
2023/01/22 07:02:35;;;;;;;27.70;16.70;;;;;;;0.10;80.82;97765.45;108633;1252;96049;-80
2023/01/22 07:05:04;;;;;;;25.10;16.70;;;;;;;0.09;80.71;97768.48;108672;1253;103609;-80
2023/01/22 07:07:32;;;;;;;30.50;19.70;;;;;;;0.09;80.93;97772.59;108573;1251;102599;-80
2023/01/22 07:10:00;;;;;;;37.80;21.80;;;;;;;0.09;80.76;97768.67;108844;1251;98999;-82
2023/01/22 07:12:28;;;;;;;31.40;19.50;;;;;;;0.09;80.84;97771.14;108823;1251;95802;-83
2023/01/22 07:14:56;;;;;;;45.80;24.80;;;;;;;0.07;80.72;97773.98;108895;1251;95992;-81
2023/01/22 07:17:24;;;;;;;62.30;34.00;;;;;;;0.06;80.89;97768.24;108872;1251;102048;-80
2023/01/22 07:19:53;;;;;;;64.40;33.90;;;;;;;0.07;80.84;97766.86;108891;1251;101258;-81
2023/01/22 07:22:21;;;;;;;61.80;33.10;;;;;;;0.09;80.95;97768.15;108855;1251;99502;-81
2023/01/22 07:24:49;;;;;;;45.00;25.00;;;;;;;0.10;81.04;97768.60;108507;1251;95723;-81
2023/01/22 07:27:17;;;;;;;38.30;20.90;;;;;;;0.07;80.94;97766.16;108653;1251;96513;-81
2023/01/22 07:29:46;;;;;;;32.20;17.30;;;;;;;0.06;81.02;97765.77;108507;1253;102731;-81
2023/01/22 07:32:14;;;;;;;24.00;15.40;;;;;;;0.03;81.03;97773.23;108877;1251;100110;-82
2023/01/22 07:34:42;;;;;;;28.10;14.60;;;;;;;0.04;81.01;97773.69;108880;1251;99408;-85
2023/01/22 07:37:10;;;;;;;24.90;14.80;;;;;;;0.07;81.06;97783.40;108874;1251;95610;-83
2023/01/22 07:39:38;;;;;;;21.00;14.10;;;;;;;0.10;81.22;97779.22;108859;1251;95918;-80
2023/01/22 07:42:06;;;;;;;26.70;15.10;;;;;;;0.13;81.11;97775.04;108511;1251;103684;-81
2023/01/22 07:44:39;;;;;;;25.00;16.60;;;;;;;0.15;81.13;97773.20;108890;1250;101651;-81
2023/01/22 07:47:07;;;;;;;28.20;17.70;;;;;;;0.20;81.14;97781.44;108855;1251;99993;-84
2023/01/22 07:49:35;;;;;;;27.20;17.20;;;;;;;0.23;81.14;97782.42;108880;1251;95606;-80
2023/01/22 07:52:03;;;;;;;65.80;35.00;;;;;;;0.25;81.15;97780.62;108806;1251;96129;-85
2023/01/22 07:54:35;;;;;;;52.90;30.20;;;;;;;0.30;81.10;97777.89;108876;1251;102645;-83
2023/01/22 07:57:04;;;;;;;56.50;32.40;;;;;;;0.34;81.20;97770.09;108852;1251;101486;-85
2023/01/22 07:59:32;;;;;;;44.10;26.60;;;;;;;0.38;81.15;97769.02;108772;1251;100237;-81
2023/01/22 08:02:00;;;;;;;35.40;22.20;;;;;;;0.42;81.15;97770.45;108883;1251;95586;-83
2023/01/22 08:04:28;;;;;;;31.50;20.30;;;;;;;0.46;81.21;97773.45;108827;1251;96035;-81
2023/01/22 08:06:56;;;;;;;29.80;18.70;;;;;;;0.49;81.24;97774.80;108866;1251;102550;-82
2023/01/22 08:09:24;;;;;;;27.20;17.40;;;;;;;0.51;81.14;97772.86;108876;1251;100494;-81
2023/01/22 08:11:53;;;;;;;26.90;18.10;;;;;;;0.50;81.08;97775.38;108784;1252;99925;-82
2023/01/22 08:14:21;;;;;;;27.20;17.50;;;;;;;0.52;81.01;97780.55;108844;1251;95634;-81
2023/01/22 08:16:49;;;;;;;26.10;17.90;;;;;;;0.48;80.92;97781.83;108857;1251;96130;-80
2023/01/22 08:19:17;;;;;;;28.90;17.00;;;;;;;0.47;80.94;97782.78;108872;1253;103424;-81
2023/01/22 08:21:45;;;;;;;33.00;19.90;;;;;;;0.50;81.09;97779.83;108552;1250;101309;-81
2023/01/22 08:24:13;;;;;;;30.10;19.50;;;;;;;0.55;81.10;97791.36;108771;1253;100143;-81
2023/01/22 08:26:44;;;;;;;33.10;19.80;;;;;;;0.59;81.09;97795.65;108800;1251;95664;-83
2023/01/22 08:29:12;;;;;;;31.90;20.40;;;;;;;0.59;81.06;97788.94;108869;1251;96366;-82
2023/01/22 08:31:41;;;;;;;33.10;22.70;;;;;;;0.63;81.08;97790.48;108883;1251;102362;-81
2023/01/22 08:34:09;;;;;;;36.20;22.60;;;;;;;0.65;81.00;97794.68;108668;1251;103704;-81
2023/01/22 08:36:37;;;;;;;35.50;22.60;;;;;;;0.68;80.89;97799.05;108844;1251;99021;-82
2023/01/22 08:39:05;;;;;;;35.00;23.00;;;;;;;0.65;80.86;97803.27;108845;1251;95673;-81
2023/01/22 08:41:33;;;;;;;31.20;21.00;;;;;;;0.62;80.87;97810.09;108872;1251;96208;-83
2023/01/22 08:44:01;;;;;;;31.90;20.30;;;;;;;0.59;80.88;97804.67;108872;1251;102589;-81
2023/01/22 08:46:30;;;;;;;32.50;21.00;;;;;;;0.61;80.89;97812.58;108931;1251;100288;-81
2023/01/22 08:48:58;;;;;;;33.40;22.20;;;;;;;0.64;80.87;97821.59;108601;1252;99662;-80
2023/01/22 08:51:26;;;;;;;35.20;22.20;;;;;;;0.63;80.91;97822.85;108819;1251;95631;-81
2023/01/22 08:53:54;;;;;;;35.00;22.60;;;;;;;0.62;80.95;97819.77;108838;1251;96209;-81
2023/01/22 08:56:22;;;;;;;36.50;22.70;;;;;;;0.64;81.00;97812.69;108852;1251;102595;-84
2023/01/22 08:58:52;;;;;;;38.80;24.00;;;;;;;0.65;80.96;97823.91;108856;1252;100182;-81
2023/01/22 09:01:20;;;;;;;41.80;26.10;;;;;;;0.66;81.04;97820.84;108838;1251;100117;-82
2023/01/22 09:03:48;;;;;;;41.30;26.50;;;;;;;0.67;80.97;97810.44;108854;1253;95812;-81
2023/01/22 09:06:17;;;;;;;45.50;28.20;;;;;;;0.66;81.05;97808.64;108812;1251;96038;-84
2023/01/22 09:08:45;;;;;;;47.30;32.40;;;;;;;0.67;81.05;97808.17;108606;1251;104631;-80
2023/01/22 09:11:13;;;;;;;51.90;34.90;;;;;;;0.70;81.17;97806.16;108852;1251;101331;-84
2023/01/22 09:13:42;;;;;;;43.00;28.80;;;;;;;0.72;81.12;97805.23;108837;1251;99862;-82
2023/01/22 09:16:13;;;;;;;42.30;25.50;;;;;;;0.78;81.25;97805.73;108449;1252;95632;-81
2023/01/22 09:18:41;;;;;;;53.60;29.40;;;;;;;0.85;81.19;97804.71;108885;1251;96369;-81
2023/01/22 09:21:09;;;;;;;50.00;29.40;;;;;;;0.90;81.08;97803.56;108627;1251;103838;-81
2023/01/22 09:23:37;;;;;;;45.90;27.80;;;;;;;0.93;81.06;97805.08;108898;1251;108688;-81
2023/01/22 09:26:05;;;;;;;45.20;26.50;;;;;;;0.96;81.14;97807.77;108791;1253;106473;-83
2023/01/22 09:28:34;;;;;;;46.90;27.00;;;;;;;1.02;81.14;97808.27;108875;1251;95586;-84
2023/01/22 09:31:02;;;;;;;48.50;27.70;;;;;;;1.07;81.12;97810.08;108839;1251;96003;-81
2023/01/22 09:33:30;;;;;;;49.80;27.60;;;;;;;1.12;80.95;97808.80;108857;1253;102505;-82
2023/01/22 09:36:08;;;;;;;43.20;24.00;;;;;;;1.14;80.80;97804.20;108883;1250;99241;-81
2023/01/22 09:38:37;;;;;;;40.60;24.40;;;;;;;1.13;80.75;97809.44;108842;1251;98979;-82
2023/01/22 09:41:18;;;;;;;45.20;25.80;;;;;;;1.11;80.68;97809.08;108830;1255;95782;-81
2023/01/22 09:43:52;;;;;;;44.50;24.70;;;;;;;1.12;80.64;97811.84;108874;1251;95571;-81
2023/01/22 09:46:38;;;;;;;49.90;26.40;;;;;;;1.13;80.73;97814.05;108901;1251;102611;-82
2023/01/22 09:49:14;;;;;;;45.30;26.60;;;;;;;1.12;80.81;97813.02;108848;1251;101436;-82
2023/01/22 09:51:53;;;;;;;43.50;25.80;;;;;;;1.16;80.91;97811.42;108824;1251;100045;-83
2023/01/22 09:54:22;;;;;;;42.60;24.80;;;;;;;1.23;80.87;97816.11;108803;1251;95569;-82
2023/01/22 09:56:53;;;;;;;40.50;24.80;;;;;;;1.32;80.94;97817.04;108857;1251;95585;-83
2023/01/22 09:59:26;;;;;;;46.90;26.90;;;;;;;1.40;80.95;97818.18;108697;1253;102219;-82
2023/01/22 10:02:01;;;;;;;44.20;26.00;;;;;;;1.50;80.89;97808.80;108608;1253;101436;-82
2023/01/22 10:04:37;;;;;;;40.20;24.50;;;;;;;1.54;80.68;97806.27;108828;1251;100109;-82
2023/01/22 10:07:13;;;;;;;39.20;23.50;;;;;;;1.56;80.66;97802.70;108860;1251;95550;-82
2023/01/22 10:09:45;;;;;;;37.00;21.70;;;;;;;1.55;80.53;97802.63;108872;1251;96317;-82
2023/01/22 10:12:14;;;;;;;36.00;21.20;;;;;;;1.54;80.45;97809.27;108942;1251;102682;-83
2023/01/22 10:14:43;;;;;;;34.90;21.90;;;;;;;1.55;80.45;97809.91;108680;1252;100244;-82
2023/01/22 10:17:20;;;;;;;27.50;18.00;;;;;;;1.58;80.42;97808.67;108553;1252;99781;-82
2023/01/22 10:19:55;;;;;;;22.30;15.20;;;;;;;1.61;80.38;97810.51;108843;1251;95517;-84
2023/01/22 10:22:25;;;;;;;22.50;14.80;;;;;;;1.61;80.29;97804.99;108474;1254;96097;-83
2023/01/22 10:24:54;;;;;;;24.50;15.70;;;;;;;1.62;80.16;97804.23;108734;1253;103250;-83
2023/01/22 10:27:35;;;;;;;32.10;20.40;;;;;;;1.61;80.09;97806.02;108788;1251;101838;-83
2023/01/22 10:30:25;;;;;;;33.00;21.10;;;;;;;1.60;80.14;97812.39;108839;1251;100141;-83
2023/01/22 10:33:05;;;;;;;30.10;19.50;;;;;;;1.57;80.00;97817.12;108800;1253;96058;-83
2023/01/22 10:35:49;;;;;;;28.30;16.90;;;;;;;1.53;79.95;97818.36;108915;1251;96000;-83
2023/01/22 10:38:35;;;;;;;27.10;16.20;;;;;;;1.51;79.99;97816.13;108899;1251;102580;-83
2023/01/22 10:41:04;;;;;;;23.90;16.10;;;;;;;1.49;80.05;97816.98;108817;1251;100363;-83
2023/01/22 10:43:38;;;;;;;27.00;16.70;;;;;;;1.45;79.99;97823.39;108637;1251;100094;-84
2023/01/22 10:46:13;;;;;;;51.60;28.40;;;;;;;1.42;80.02;97822.77;108732;1251;95615;-83
2023/01/22 10:48:41;;;;;;;37.40;21.90;;;;;;;1.42;80.08;97820.11;108902;1251;96499;-83
2023/01/22 10:51:26;;;;;;;24.80;15.40;;;;;;;1.45;79.99;97821.09;108882;1251;102536;-84
2023/01/22 10:53:57;;;;;;;25.80;17.00;;;;;;;1.49;80.03;97815.98;108818;1251;100039;-84
2023/01/22 10:56:32;;;;;;;29.40;18.50;;;;;;;1.46;79.83;97819.38;108890;1251;99475;-83
2023/01/22 10:59:03;;;;;;;38.80;24.30;;;;;;;1.47;79.85;97825.37;108775;1252;95613;-83
2023/01/22 11:01:38;;;;;;;43.00;26.80;;;;;;;1.49;79.84;97817.92;108856;1252;96078;-83
2023/01/22 11:04:23;;;;;;;45.50;28.00;;;;;;;1.49;79.91;97813.66;108815;1251;102697;-84
2023/01/22 11:06:59;;;;;;;35.60;20.60;;;;;;;1.48;79.77;97809.43;108617;1251;101241;-84
2023/01/22 11:10:04;;;;;;;27.20;16.50;;;;;;;1.44;79.79;97813.88;108859;1251;98685;-85
2023/01/22 11:12:41;;;;;;;25.90;16.50;;;;;;;1.44;79.81;97816.21;108845;1251;95525;-85
2023/01/22 11:15:18;;;;;;;58.90;31.50;;;;;;;1.44;79.70;97811.79;108563;1251;96553;-83
2023/01/22 11:17:57;;;;;;;68.20;35.70;;;;;;;1.38;79.65;97818.20;108871;1251;103785;-84
2023/01/22 11:20:44;;;;;;;36.50;21.00;;;;;;;1.35;79.66;97822.23;108856;1250;100695;-83
2023/01/22 11:23:12;;;;;;;59.00;34.80;;;;;;;1.38;79.74;97820.84;108613;1251;99469;-83
2023/01/22 11:26:03;;;;;;;43.30;25.90;;;;;;;1.42;79.72;97824.73;108823;1251;95674;-83
2023/01/22 11:28:49;;;;;;;33.70;19.80;;;;;;;1.41;79.75;97824.11;108299;1258;96605;-84
2023/01/22 11:31:38;;;;;;;33.40;19.40;;;;;;;1.41;79.67;97817.23;108258;1259;102644;-82
2023/01/22 11:34:33;;;;;;;41.90;23.00;;;;;;;1.47;79.71;97816.27;108291;1257;101246;-82